Mississippi Star — 9HA2441 — position and weather

sailwx.info

Track history (hours):
 
Tides and Currents Weather Stations Pressure Air Temp Water Temp Dewpoint Dewpoint Depression Visibility Wind Speed Wind Dir Waves Ship Positions

Mississippi Star

Last reported at 2014-Jul-21 12:09 UTC. Time now 2014-Jul-25 08:59 UTC.
Position N 54°28' E 005°01'.

Length 128 m; draft 6.2 m.

Type: Ship. MMSI: 248621000.

Date/timePositionNaut miles runAvg speedWind from/ knotsBaromVisibWave heightAir tempDewpointWater temp
2014-Jul-21 12:09N 54°28' E 005°01'712.4
2014-Jul-21 11:33N 54°20' E 004°59'1212.1
2014-Jul-21 10:33N 54°09' E 004°52'1211.9
2014-Jul-21 09:33N 53°59' E 004°41'10111.2
2014-Jul-21 00:31N 52°36' E 003°04'4413.4
2014-Jul-20 21:14N 51°59' E 002°26'1114.1
2014-Jul-20 20:25N 51°50' E 002°15'1213.8
2014-Jul-20 19:33N 51°40' E 002°03'1313.3
2014-Jul-20 18:34N 51°32' E 001°46'1212.3
2014-Jul-20 17:33N 51°27' E 001°28'1010.4
2014-Jul-20 16:33N 51°29' E 001°12'1111.4
2014-Jul-20 15:34N 51°29' E 000°54'1111.2
2014-Jul-20 14:34N 51°30' E 000°36'1010.1
2014-Jul-20 13:34N 51°27' E 000°21'3 3.0
2014-Jul-20 12:34N 51°28' E 000°16'0 0.0
2014-Jul-20 11:29N 51°28' E 000°16'0 0.0
2014-Jul-20 10:32N 51°28' E 000°16'0 0.0
2014-Jul-20 09:33N 51°28' E 000°16'0 0.0
2014-Jul-20 08:34N 51°28' E 000°16'0 0.0
2014-Jul-20 07:31N 51°28' E 000°16'0 0.0
2014-Jul-20 06:31N 51°28' E 000°16'0 0.0
2014-Jul-20 05:32N 51°28' E 000°16'0 0.0
2014-Jul-20 04:33N 51°28' E 000°16'0 0.0
2014-Jul-20 03:33N 51°28' E 000°16'0 0.0
2014-Jul-20 02:33N 51°28' E 000°16'0 0.0
2014-Jul-20 01:34N 51°28' E 000°16'0 0.0
2014-Jul-20 00:33N 51°28' E 000°16'0 0.0
2014-Jul-19 23:32N 51°28' E 000°16'0 0.0
2014-Jul-19 22:31N 51°28' E 000°16'0 0.0
2014-Jul-19 21:33N 51°28' E 000°16'0 0.0
2014-Jul-19 20:31N 51°28' E 000°16'0 0.0
2014-Jul-19 19:33N 51°28' E 000°16'0 0.0
2014-Jul-19 18:32N 51°28' E 000°16'0 0.0
2014-Jul-19 17:33N 51°28' E 000°16'0 0.0
2014-Jul-19 16:32N 51°28' E 000°16'0 0.0
2014-Jul-19 15:31N 51°28' E 000°16'0 0.0
2014-Jul-19 14:33N 51°28' E 000°16'0 0.0
2014-Jul-19 13:34N 51°28' E 000°16'0 0.0
2014-Jul-19 12:33N 51°28' E 000°16'0 0.0
2014-Jul-19 11:33N 51°28' E 000°16'0 0.0
2014-Jul-19 10:34N 51°28' E 000°16'0 0.0
2014-Jul-19 09:34N 51°28' E 000°16'0 0.0
2014-Jul-19 08:34N 51°28' E 000°16'0 0.0
2014-Jul-19 07:31N 51°28' E 000°16'0 0.0
2014-Jul-19 06:34N 51°28' E 000°16'1 1.0
2014-Jul-19 05:34N 51°28' E 000°18'7 6.6
2014-Jul-19 04:33N 51°30' E 000°28'10 9.9
2014-Jul-19 03:33N 51°30' E 000°44'1110.7
2014-Jul-19 02:33N 51°30' E 001°01'1211.9
2014-Jul-19 01:33N 51°36' E 001°18'1313.3
2014-Jul-19 00:33N 51°46' E 001°32'10 9.9
2014-Jul-18 23:33N 51°54' E 001°41'1 1.0
2014-Jul-18 22:32N 51°55' E 001°42'0 0.0
2014-Jul-18 21:33N 51°55' E 001°42'0 0.0
2014-Jul-18 20:33N 51°55' E 001°42'0 0.0
2014-Jul-18 19:33N 51°55' E 001°42'0 0.0
2014-Jul-18 18:33N 51°55' E 001°42'0 0.0
2014-Jul-18 17:32N 51°55' E 001°42'0 0.0
2014-Jul-18 16:33N 51°55' E 001°42'0 0.1
2014-Jul-18 15:33N 51°55' E 001°42'0 0.0
2014-Jul-18 14:33N 51°55' E 001°42'0 0.0
2014-Jul-18 13:33N 51°55' E 001°42'0 0.0
2014-Jul-18 12:33N 51°55' E 001°42'0 0.0
2014-Jul-18 11:33N 51°55' E 001°42'0 0.0
2014-Jul-18 10:33N 51°55' E 001°42'0 0.1
2014-Jul-18 09:33N 51°55' E 001°42'0 0.1
2014-Jul-18 08:33N 51°55' E 001°42'0 0.0
2014-Jul-18 07:32N 51°55' E 001°42'0 0.0
2014-Jul-18 06:33N 51°55' E 001°42'0 0.0
2014-Jul-18 05:33N 51°55' E 001°42'0 0.1
2014-Jul-18 04:32N 51°55' E 001°42'0 0.1
2014-Jul-18 03:33N 51°55' E 001°42'0 0.0
2014-Jul-18 02:33N 51°55' E 001°42'0 0.0
2014-Jul-18 01:33N 51°55' E 001°42'0 0.0
2014-Jul-18 00:33N 51°55' E 001°42'0 0.0
2014-Jul-17 23:32N 51°55' E 001°42'0 0.0
2014-Jul-17 22:33N 51°55' E 001°42'0 0.1
2014-Jul-17 21:32N 51°55' E 001°42'0 0.1
2014-Jul-17 20:33N 51°55' E 001°42'0 0.0
2014-Jul-17 19:32N 51°55' E 001°42'0 0.0
2014-Jul-17 18:32N 51°55' E 001°42'0 0.0
2014-Jul-17 17:32N 51°55' E 001°42'0 0.0
2014-Jul-17 16:33N 51°55' E 001°42'0 0.1
2014-Jul-17 15:32N 51°55' E 001°42'0 0.1
2014-Jul-17 14:32N 51°55' E 001°42'0 0.0
2014-Jul-17 13:33N 51°55' E 001°42'0 0.0
2014-Jul-17 12:32N 51°55' E 001°42'0 0.0
2014-Jul-17 11:32N 51°55' E 001°42'0 0.0
2014-Jul-17 10:32N 51°55' E 001°42'0 0.0
2014-Jul-17 09:32N 51°55' E 001°42'0 0.1
2014-Jul-17 08:32N 51°55' E 001°42'0 0.0
2014-Jul-17 07:32N 51°55' E 001°42'0 0.0
2014-Jul-17 06:32N 51°55' E 001°42'0 0.0
2014-Jul-17 05:29N 51°55' E 001°42'0 0.0
2014-Jul-17 04:32N 51°55' E 001°42'0 0.1
2014-Jul-17 03:32N 51°55' E 001°42'0 0.1
2014-Jul-17 02:32N 51°55' E 001°42'0 0.0
2014-Jul-17 01:32N 51°55' E 001°42'0 0.0
2014-Jul-17 00:32N 51°55' E 001°42'0 0.0
2014-Jul-16 23:32N 51°55' E 001°42'0 0.0
2014-Jul-16 22:32N 51°55' E 001°42'0 0.1
2014-Jul-16 21:32N 51°55' E 001°42'0 0.1
2014-Jul-16 20:32N 51°55' E 001°42'0 0.0
2014-Jul-16 19:32N 51°55' E 001°42'0 0.0
2014-Jul-16 18:32N 51°55' E 001°42'0 0.0
2014-Jul-16 17:32N 51°55' E 001°42'0 0.0
2014-Jul-16 16:29N 51°55' E 001°42'0 0.0
2014-Jul-16 15:32N 51°55' E 001°42'0 0.1
2014-Jul-16 14:32N 51°55' E 001°42'0 0.1
2014-Jul-16 13:32N 51°55' E 001°42'0 0.0
2014-Jul-16 12:32N 51°55' E 001°42'0 0.0
2014-Jul-16 11:32N 51°55' E 001°42'0 0.0
2014-Jul-16 10:32N 51°55' E 001°42'0 0.0
2014-Jul-16 09:32N 51°55' E 001°42'0 0.1
2014-Jul-16 08:32N 51°55' E 001°42'0 0.0
2014-Jul-16 07:32N 51°55' E 001°42'0 0.0
2014-Jul-16 06:32N 51°55' E 001°42'0 0.0
2014-Jul-16 05:32N 51°55' E 001°42'0 0.0
2014-Jul-16 04:32N 51°55' E 001°42'0 0.0
2014-Jul-16 03:32N 51°55' E 001°42'0 0.0
2014-Jul-16 02:32N 51°55' E 001°42'0 0.1
2014-Jul-16 01:32N 51°55' E 001°42'0 0.0
2014-Jul-16 00:32N 51°55' E 001°42'0 0.0
2014-Jul-15 23:32N 51°55' E 001°42'0 0.0
2014-Jul-15 22:32N 51°55' E 001°42'0 0.0
2014-Jul-15 21:32N 51°55' E 001°42'0 0.1
2014-Jul-15 20:32N 51°55' E 001°42'0 0.1
2014-Jul-15 19:32N 51°55' E 001°42'0 0.0
2014-Jul-15 18:32N 51°55' E 001°42'0 0.0
2014-Jul-15 17:32N 51°55' E 001°42'0 0.0
2014-Jul-15 16:32N 51°55' E 001°42'0 0.0
2014-Jul-15 15:32N 51°55' E 001°42'0 0.1
2014-Jul-15 14:32N 51°55' E 001°42'0 0.2
2014-Jul-15 13:32N 51°55' E 001°41'0 0.0
2014-Jul-15 12:32N 51°55' E 001°41'0 0.0
2014-Jul-15 11:32N 51°55' E 001°41'0 0.0
2014-Jul-15 10:32N 51°55' E 001°41'0 0.0
2014-Jul-15 09:32N 51°55' E 001°41'0 0.0
2014-Jul-15 08:32N 51°55' E 001°41'0 0.2
2014-Jul-15 07:32N 51°55' E 001°42'0 0.0
2014-Jul-15 06:32N 51°55' E 001°42'0 0.0
2014-Jul-15 05:32N 51°55' E 001°42'0 0.0
2014-Jul-15 04:32N 51°55' E 001°42'0 0.0
2014-Jul-15 03:32N 51°55' E 001°42'0 0.0
2014-Jul-15 02:32N 51°55' E 001°42'0 0.0
2014-Jul-15 01:32N 51°55' E 001°42'0 0.2
2014-Jul-15 00:32N 51°55' E 001°42'0 0.0
2014-Jul-14 23:32N 51°55' E 001°41'0 0.0
2014-Jul-14 22:32N 51°55' E 001°41'0 0.0
2014-Jul-14 21:32N 51°55' E 001°41'0 0.0
2014-Jul-14 20:32N 51°55' E 001°42'0 0.2
2014-Jul-14 19:32N 51°55' E 001°42'0 0.0
2014-Jul-14 18:32N 51°55' E 001°42'3 3.5
2014-Jul-14 17:33N 51°57' E 001°46'8 8.1
2014-Jul-14 16:34N 52°01' E 001°57'9 9.3
2014-Jul-14 15:34N 52°05' E 002°11'  
Track history (hours):
 
Tides and Currents Weather Stations Pressure Air Temp Water Temp Dewpoint Dewpoint Depression Visibility Wind Speed Wind Dir Waves Ship Positions

Mississippi Star

Last reported at 2014-Jul-21 12:09 UTC. Time now 2014-Jul-25 08:59 UTC.
Position N 54°28' E 005°01'.

Length 128 m; draft 6.2 m.

Type: Ship. MMSI: 248621000.

Date/timePositionNaut miles runAvg speedWind from/ knotsBaromVisibWave heightAir tempDewpointWater temp
2014-Jul-21 12:09N 54°28' E 005°01'712.4
2014-Jul-21 11:33N 54°20' E 004°59'1212.1
2014-Jul-21 10:33N 54°09' E 004°52'1211.9
2014-Jul-21 09:33N 53°59' E 004°41'10111.2
2014-Jul-21 00:31N 52°36' E 003°04'4413.4
2014-Jul-20 21:14N 51°59' E 002°26'1114.1
2014-Jul-20 20:25N 51°50' E 002°15'1213.8
2014-Jul-20 19:33N 51°40' E 002°03'1313.3
2014-Jul-20 18:34N 51°32' E 001°46'1212.3
2014-Jul-20 17:33N 51°27' E 001°28'1010.4
2014-Jul-20 16:33N 51°29' E 001°12'1111.4
2014-Jul-20 15:34N 51°29' E 000°54'1111.2
2014-Jul-20 14:34N 51°30' E 000°36'1010.1
2014-Jul-20 13:34N 51°27' E 000°21'3 3.0
2014-Jul-20 12:34N 51°28' E 000°16'0 0.0
2014-Jul-20 11:29N 51°28' E 000°16'0 0.0
2014-Jul-20 10:32N 51°28' E 000°16'0 0.0
2014-Jul-20 09:33N 51°28' E 000°16'0 0.0
2014-Jul-20 08:34N 51°28' E 000°16'0 0.0
2014-Jul-20 07:31N 51°28' E 000°16'0 0.0
2014-Jul-20 06:31N 51°28' E 000°16'0 0.0
2014-Jul-20 05:32N 51°28' E 000°16'0 0.0
2014-Jul-20 04:33N 51°28' E 000°16'0 0.0
2014-Jul-20 03:33N 51°28' E 000°16'0 0.0
2014-Jul-20 02:33N 51°28' E 000°16'0 0.0
2014-Jul-20 01:34N 51°28' E 000°16'0 0.0
2014-Jul-20 00:33N 51°28' E 000°16'0 0.0
2014-Jul-19 23:32N 51°28' E 000°16'0 0.0
2014-Jul-19 22:31N 51°28' E 000°16'0 0.0
2014-Jul-19 21:33N 51°28' E 000°16'0 0.0
2014-Jul-19 20:31N 51°28' E 000°16'0 0.0
2014-Jul-19 19:33N 51°28' E 000°16'0 0.0
2014-Jul-19 18:32N 51°28' E 000°16'0 0.0
2014-Jul-19 17:33N 51°28' E 000°16'0 0.0
2014-Jul-19 16:32N 51°28' E 000°16'0 0.0
2014-Jul-19 15:31N 51°28' E 000°16'0 0.0
2014-Jul-19 14:33N 51°28' E 000°16'0 0.0
2014-Jul-19 13:34N 51°28' E 000°16'0 0.0
2014-Jul-19 12:33N 51°28' E 000°16'0 0.0
2014-Jul-19 11:33N 51°28' E 000°16'0 0.0
2014-Jul-19 10:34N 51°28' E 000°16'0 0.0
2014-Jul-19 09:34N 51°28' E 000°16'0 0.0
2014-Jul-19 08:34N 51°28' E 000°16'0 0.0
2014-Jul-19 07:31N 51°28' E 000°16'0 0.0
2014-Jul-19 06:34N 51°28' E 000°16'1 1.0
2014-Jul-19 05:34N 51°28' E 000°18'7 6.6
2014-Jul-19 04:33N 51°30' E 000°28'10 9.9
2014-Jul-19 03:33N 51°30' E 000°44'1110.7
2014-Jul-19 02:33N 51°30' E 001°01'1211.9
2014-Jul-19 01:33N 51°36' E 001°18'1313.3
2014-Jul-19 00:33N 51°46' E 001°32'10 9.9
2014-Jul-18 23:33N 51°54' E 001°41'1 1.0
2014-Jul-18 22:32N 51°55' E 001°42'0 0.0
2014-Jul-18 21:33N 51°55' E 001°42'0 0.0
2014-Jul-18 20:33N 51°55' E 001°42'0 0.0
2014-Jul-18 19:33N 51°55' E 001°42'0 0.0
2014-Jul-18 18:33N 51°55' E 001°42'0 0.0
2014-Jul-18 17:32N 51°55' E 001°42'0 0.0
2014-Jul-18 16:33N 51°55' E 001°42'0 0.1
2014-Jul-18 15:33N 51°55' E 001°42'0 0.0
2014-Jul-18 14:33N 51°55' E 001°42'0 0.0
2014-Jul-18 13:33N 51°55' E 001°42'0 0.0
2014-Jul-18 12:33N 51°55' E 001°42'0 0.0
2014-Jul-18 11:33N 51°55' E 001°42'0 0.0
2014-Jul-18 10:33N 51°55' E 001°42'0 0.1
2014-Jul-18 09:33N 51°55' E 001°42'0 0.1
2014-Jul-18 08:33N 51°55' E 001°42'0 0.0
2014-Jul-18 07:32N 51°55' E 001°42'0 0.0
2014-Jul-18 06:33N 51°55' E 001°42'0 0.0
2014-Jul-18 05:33N 51°55' E 001°42'0 0.1
2014-Jul-18 04:32N 51°55' E 001°42'0 0.1
2014-Jul-18 03:33N 51°55' E 001°42'0 0.0
2014-Jul-18 02:33N 51°55' E 001°42'0 0.0
2014-Jul-18 01:33N 51°55' E 001°42'0 0.0
2014-Jul-18 00:33N 51°55' E 001°42'0 0.0
2014-Jul-17 23:32N 51°55' E 001°42'0 0.0
2014-Jul-17 22:33N 51°55' E 001°42'0 0.1
2014-Jul-17 21:32N 51°55' E 001°42'0 0.1
2014-Jul-17 20:33N 51°55' E 001°42'0 0.0
2014-Jul-17 19:32N 51°55' E 001°42'0 0.0
2014-Jul-17 18:32N 51°55' E 001°42'0 0.0
2014-Jul-17 17:32N 51°55' E 001°42'0 0.0
2014-Jul-17 16:33N 51°55' E 001°42'0 0.1
2014-Jul-17 15:32N 51°55' E 001°42'0 0.1
2014-Jul-17 14:32N 51°55' E 001°42'0 0.0
2014-Jul-17 13:33N 51°55' E 001°42'0 0.0
2014-Jul-17 12:32N 51°55' E 001°42'0 0.0
2014-Jul-17 11:32N 51°55' E 001°42'0 0.0
2014-Jul-17 10:32N 51°55' E 001°42'0 0.0
2014-Jul-17 09:32N 51°55' E 001°42'0 0.1
2014-Jul-17 08:32N 51°55' E 001°42'0 0.0
2014-Jul-17 07:32N 51°55' E 001°42'0 0.0
2014-Jul-17 06:32N 51°55' E 001°42'0 0.0
2014-Jul-17 05:29N 51°55' E 001°42'0 0.0
2014-Jul-17 04:32N 51°55' E 001°42'0 0.1
2014-Jul-17 03:32N 51°55' E 001°42'0 0.1
2014-Jul-17 02:32N 51°55' E 001°42'0 0.0
2014-Jul-17 01:32N 51°55' E 001°42'0 0.0
2014-Jul-17 00:32N 51°55' E 001°42'0 0.0
2014-Jul-16 23:32N 51°55' E 001°42'0 0.0
2014-Jul-16 22:32N 51°55' E 001°42'0 0.1
2014-Jul-16 21:32N 51°55' E 001°42'0 0.1
2014-Jul-16 20:32N 51°55' E 001°42'0 0.0
2014-Jul-16 19:32N 51°55' E 001°42'0 0.0
2014-Jul-16 18:32N 51°55' E 001°42'0 0.0
2014-Jul-16 17:32N 51°55' E 001°42'0 0.0
2014-Jul-16 16:29N 51°55' E 001°42'0 0.0
2014-Jul-16 15:32N 51°55' E 001°42'0 0.1
2014-Jul-16 14:32N 51°55' E 001°42'0 0.1
2014-Jul-16 13:32N 51°55' E 001°42'0 0.0
2014-Jul-16 12:32N 51°55' E 001°42'0 0.0
2014-Jul-16 11:32N 51°55' E 001°42'0 0.0
2014-Jul-16 10:32N 51°55' E 001°42'0 0.0
2014-Jul-16 09:32N 51°55' E 001°42'0 0.1
2014-Jul-16 08:32N 51°55' E 001°42'0 0.0
2014-Jul-16 07:32N 51°55' E 001°42'0 0.0
2014-Jul-16 06:32N 51°55' E 001°42'0 0.0
2014-Jul-16 05:32N 51°55' E 001°42'0 0.0
2014-Jul-16 04:32N 51°55' E 001°42'0 0.0
2014-Jul-16 03:32N 51°55' E 001°42'0 0.0
2014-Jul-16 02:32N 51°55' E 001°42'0 0.1
2014-Jul-16 01:32N 51°55' E 001°42'0 0.0
2014-Jul-16 00:32N 51°55' E 001°42'0 0.0
2014-Jul-15 23:32N 51°55' E 001°42'0 0.0
2014-Jul-15 22:32N 51°55' E 001°42'0 0.0
2014-Jul-15 21:32N 51°55' E 001°42'0 0.1
2014-Jul-15 20:32N 51°55' E 001°42'0 0.1
2014-Jul-15 19:32N 51°55' E 001°42'0 0.0
2014-Jul-15 18:32N 51°55' E 001°42'0 0.0
2014-Jul-15 17:32N 51°55' E 001°42'0 0.0
2014-Jul-15 16:32N 51°55' E 001°42'0 0.0
2014-Jul-15 15:32N 51°55' E 001°42'0 0.1
2014-Jul-15 14:32N 51°55' E 001°42'0 0.2
2014-Jul-15 13:32N 51°55' E 001°41'0 0.0
2014-Jul-15 12:32N 51°55' E 001°41'0 0.0
2014-Jul-15 11:32N 51°55' E 001°41'0 0.0
2014-Jul-15 10:32N 51°55' E 001°41'0 0.0
2014-Jul-15 09:32N 51°55' E 001°41'0 0.0
2014-Jul-15 08:32N 51°55' E 001°41'0 0.2
2014-Jul-15 07:32N 51°55' E 001°42'0 0.0
2014-Jul-15 06:32N 51°55' E 001°42'0 0.0
2014-Jul-15 05:32N 51°55' E 001°42'0 0.0
2014-Jul-15 04:32N 51°55' E 001°42'0 0.0
2014-Jul-15 03:32N 51°55' E 001°42'0 0.0
2014-Jul-15 02:32N 51°55' E 001°42'0 0.0
2014-Jul-15 01:32N 51°55' E 001°42'0 0.2
2014-Jul-15 00:32N 51°55' E 001°42'0 0.0
2014-Jul-14 23:32N 51°55' E 001°41'0 0.0
2014-Jul-14 22:32N 51°55' E 001°41'0 0.0
2014-Jul-14 21:32N 51°55' E 001°41'0 0.0
2014-Jul-14 20:32N 51°55' E 001°42'0 0.2
2014-Jul-14 19:32N 51°55' E 001°42'0 0.0
2014-Jul-14 18:32N 51°55' E 001°42'3 3.5
2014-Jul-14 17:33N 51°57' E 001°46'8 8.1
2014-Jul-14 16:34N 52°01' E 001°57'9 9.3
2014-Jul-14 15:34N 52°05' E 002°11'  

Dump ship's entire track history